createdAt,value
2023-01-01T00:05:03.678Z,6.10
2023-01-01T00:10:12.783Z,6.20
2023-01-01T00:15:21.237Z,6.20
2023-01-01T00:20:34.969Z,6.30
2023-01-01T00:25:38.516Z,6.30
2023-01-01T00:30:47.511Z,6.30
2023-01-01T00:35:56.253Z,6.30
2023-01-01T00:41:05.053Z,6.30
2023-01-01T00:46:13.572Z,6.30
2023-01-01T00:51:22.173Z,6.40
2023-01-01T00:56:30.692Z,6.40
2023-01-01T01:01:39.426Z,6.40
2023-01-01T01:06:48.113Z,6.40
2023-01-01T01:12:18.063Z,6.50
2023-01-01T01:17:05.528Z,6.50
2023-01-01T01:22:14.496Z,6.50
2023-01-01T01:27:22.696Z,6.50
2023-01-01T01:32:32.257Z,6.60
2023-01-01T01:37:40.922Z,6.60
2023-01-01T01:42:49.706Z,6.60
2023-01-01T01:47:58.208Z,6.50
2023-01-01T01:53:06.838Z,6.50
2023-01-01T01:58:15.059Z,6.50
2023-01-01T02:03:23.955Z,6.50
2023-01-01T02:08:32.564Z,6.50
2023-01-01T02:13:41.172Z,6.60
2023-01-01T02:18:49.516Z,6.70
2023-01-01T02:23:58.973Z,6.60
2023-01-01T02:29:07.452Z,6.70
2023-01-01T02:34:16.124Z,6.70
2023-01-01T02:39:24.567Z,6.70
2023-01-01T02:44:33.741Z,6.70
2023-01-01T02:49:42.523Z,6.70
2023-01-01T02:54:51.449Z,6.80
2023-01-01T02:59:59.658Z,6.80
2023-01-01T03:05:08.282Z,6.80
2023-01-01T03:10:16.630Z,6.80
2023-01-01T03:15:25.100Z,6.80
2023-01-01T03:20:33.318Z,6.90
2023-01-01T03:25:42.359Z,7.00
2023-01-01T03:30:50.869Z,7.00
2023-01-01T03:35:59.355Z,7.00
2023-01-01T03:41:07.606Z,7.00
2023-01-01T03:46:16.169Z,7.10
2023-01-01T03:51:24.358Z,7.10
2023-01-01T03:56:33.151Z,7.10
2023-01-01T04:01:41.500Z,7.10
2023-01-01T04:06:50.185Z,7.00
2023-01-01T04:11:58.493Z,7.00
2023-01-01T04:17:07.523Z,7.00
2023-01-01T04:22:16.164Z,7.00
2023-01-01T04:27:25.138Z,7.00
2023-01-01T04:32:33.953Z,7.00
2023-01-01T04:37:42.783Z,6.90
2023-01-01T04:42:51.110Z,7.00
2023-01-01T04:48:00.127Z,6.90
2023-01-01T04:53:08.369Z,6.90
2023-01-01T04:58:16.885Z,6.90
2023-01-01T05:03:25.633Z,7.00
2023-01-01T05:08:34.750Z,7.00
2023-01-01T05:13:43.582Z,7.00
2023-01-01T05:18:52.331Z,7.00
2023-01-01T05:24:00.922Z,7.00
2023-01-01T05:29:16.047Z,7.00
2023-01-01T05:34:17.719Z,7.00
2023-01-01T05:39:26.481Z,7.10
2023-01-01T05:44:35.199Z,7.00
2023-01-01T05:49:43.943Z,7.00
2023-01-01T05:54:52.263Z,7.00
2023-01-01T06:00:01.206Z,7.10
2023-01-01T06:05:09.714Z,7.10
2023-01-01T06:10:18.541Z,7.10
2023-01-01T06:15:27.020Z,7.10
2023-01-01T06:20:35.560Z,7.00
2023-01-01T06:25:44.279Z,7.00
2023-01-01T06:30:52.874Z,7.10
2023-01-01T06:36:01.143Z,7.10
2023-01-01T06:41:10.122Z,7.10
2023-01-01T06:46:18.818Z,7.10
2023-01-01T06:51:27.854Z,7.20
2023-01-01T06:56:36.512Z,7.20
2023-01-01T07:01:45.485Z,7.20
2023-01-01T07:06:54.328Z,7.30
2023-01-01T07:12:03.168Z,7.30
2023-01-01T07:17:12.071Z,7.30
2023-01-01T07:22:21.056Z,7.40
2023-01-01T07:27:29.686Z,7.40
2023-01-01T07:32:38.738Z,7.50
2023-01-01T07:37:47.471Z,7.50
2023-01-01T07:42:56.514Z,7.50
2023-01-01T07:48:05.309Z,7.60
2023-01-01T07:53:14.314Z,7.70
2023-01-01T07:58:22.780Z,7.80
2023-01-01T08:03:32.250Z,7.90
2023-01-01T08:08:40.779Z,7.90
2023-01-01T08:13:50.183Z,8.00
2023-01-01T08:18:58.618Z,8.10
2023-01-01T08:24:06.857Z,8.20
2023-01-01T08:29:15.369Z,8.10
2023-01-01T08:34:24.049Z,8.20
2023-01-01T08:39:32.487Z,8.30
2023-01-01T08:44:41.676Z,8.40
2023-01-01T08:49:50.241Z,8.50
2023-01-01T08:54:59.030Z,8.70
2023-01-01T09:00:07.234Z,8.80
2023-01-01T09:05:15.820Z,8.80
2023-01-01T09:10:24.217Z,8.80
2023-01-01T09:15:33.121Z,8.90
2023-01-01T09:20:41.744Z,9.00
2023-01-01T09:25:50.695Z,9.30
2023-01-01T09:30:59.651Z,9.50
2023-01-01T09:36:08.175Z,9.60
2023-01-01T09:41:16.302Z,9.80
2023-01-01T09:46:31.171Z,9.90
2023-01-01T09:51:32.817Z,10.30
2023-01-01T09:56:41.989Z,10.70
2023-01-01T10:01:50.577Z,10.80
2023-01-01T10:06:59.344Z,10.70
2023-01-01T10:12:07.470Z,10.40
2023-01-01T10:17:16.191Z,10.30
2023-01-01T10:22:24.590Z,10.30
2023-01-01T10:27:33.362Z,10.20
2023-01-01T10:32:41.939Z,10.50
2023-01-01T10:37:51.166Z,10.70
2023-01-01T10:42:59.780Z,10.80
2023-01-01T10:48:08.606Z,10.70
2023-01-01T10:53:16.804Z,10.70
2023-01-01T10:58:25.805Z,10.60
2023-01-01T11:03:34.381Z,10.60
2023-01-01T11:08:43.084Z,10.50
2023-01-01T11:13:51.487Z,10.50
2023-01-01T11:19:00.142Z,10.40
2023-01-01T11:24:08.821Z,10.30
2023-01-01T11:29:17.146Z,10.30
2023-01-01T11:34:25.571Z,10.30
2023-01-01T11:39:34.430Z,10.20
2023-01-01T11:44:42.585Z,10.20
2023-01-01T11:49:51.141Z,10.20
2023-01-01T11:54:59.599Z,10.30
2023-01-01T12:00:09.268Z,10.10
2023-01-01T12:05:17.582Z,10.10
2023-01-01T12:10:26.488Z,10.00
2023-01-01T12:15:35.161Z,9.90
2023-01-01T12:20:44.119Z,9.80
2023-01-01T12:25:52.551Z,9.70
2023-01-01T12:31:01.630Z,9.70
2023-01-01T12:36:10.265Z,9.60
2023-01-01T12:41:18.681Z,9.60
2023-01-01T12:46:27.113Z,9.50
2023-01-01T12:51:35.758Z,9.50
2023-01-01T12:56:44.479Z,9.50
2023-01-01T13:01:53.043Z,9.40
2023-01-01T13:07:01.395Z,9.40
2023-01-01T13:12:10.100Z,9.50
2023-01-01T13:17:18.515Z,9.50
2023-01-01T13:22:26.900Z,9.50
2023-01-01T13:27:35.411Z,9.50
2023-01-01T13:32:44.149Z,9.50
2023-01-01T13:37:52.691Z,9.50
2023-01-01T13:43:04.246Z,9.50
2023-01-01T13:48:09.254Z,9.40
2023-01-01T13:53:17.410Z,9.30
2023-01-01T13:58:25.766Z,9.20
2023-01-01T14:03:34.448Z,9.10
2023-01-01T14:08:42.754Z,9.00
2023-01-01T14:13:51.145Z,8.80
2023-01-01T14:18:59.262Z,8.80
2023-01-01T14:24:07.570Z,8.70
2023-01-01T14:29:15.913Z,8.60
2023-01-01T14:34:24.893Z,8.50
2023-01-01T14:39:33.291Z,8.50
2023-01-01T14:44:41.809Z,8.40
2023-01-01T14:49:50.221Z,8.50
2023-01-01T14:54:58.336Z,8.60
2023-01-01T15:00:06.833Z,8.70
2023-01-01T15:05:15.706Z,8.60
2023-01-01T15:10:24.107Z,8.60
2023-01-01T15:15:32.629Z,8.60
2023-01-01T15:20:41.187Z,8.70
2023-01-01T15:25:49.740Z,8.70
2023-01-01T15:30:57.984Z,8.80
2023-01-01T15:36:06.825Z,8.90
2023-01-01T15:41:15.233Z,8.90
2023-01-01T15:46:27.450Z,8.90
2023-01-01T15:51:31.491Z,9.00
2023-01-01T15:56:40.126Z,9.00
2023-01-01T16:01:48.435Z,9.00
2023-01-01T16:06:56.744Z,9.00
2023-01-01T16:12:05.015Z,9.00
2023-01-01T16:17:13.641Z,9.00
2023-01-01T16:22:22.104Z,8.70
2023-01-01T16:27:31.109Z,8.70
2023-01-01T16:32:39.370Z,8.60
2023-01-01T16:37:47.691Z,8.60
2023-01-01T16:42:56.114Z,8.40
2023-01-01T16:48:04.509Z,8.30
2023-01-01T16:53:12.621Z,8.20
2023-01-01T16:58:48.669Z,8.10
2023-01-01T17:03:29.835Z,8.10
2023-01-01T17:08:38.486Z,8.20
2023-01-01T17:13:46.987Z,8.20
2023-01-01T17:19:14.579Z,8.10
2023-01-01T17:24:03.397Z,8.10
2023-01-01T17:29:12.140Z,8.10
2023-01-01T17:34:20.617Z,8.00
2023-01-01T17:39:29.719Z,8.00
2023-01-01T17:44:37.918Z,8.00
2023-01-01T17:49:46.692Z,8.00
2023-01-01T17:54:55.088Z,7.90
2023-01-01T18:00:04.230Z,8.00
2023-01-01T18:05:12.417Z,8.00
2023-01-01T18:10:21.062Z,8.10
2023-01-01T18:15:30.256Z,8.20
2023-01-01T18:20:39.397Z,8.30
2023-01-01T18:25:47.870Z,8.40
2023-01-01T18:30:56.994Z,8.40
2023-01-01T18:36:05.806Z,8.40
2023-01-01T18:41:14.652Z,8.30
2023-01-01T18:46:23.016Z,8.40
2023-01-01T18:51:32.073Z,8.30
2023-01-01T18:56:40.722Z,8.30
2023-01-01T19:01:49.753Z,8.40
2023-01-01T19:06:58.271Z,8.50
2023-01-01T19:12:07.021Z,8.60
2023-01-01T19:17:15.631Z,8.80
2023-01-01T19:22:24.585Z,8.90
2023-01-01T19:27:32.893Z,8.90
2023-01-01T19:32:42.003Z,8.90
2023-01-01T19:37:50.338Z,8.80
2023-01-01T19:42:59.323Z,8.70
2023-01-01T19:48:07.651Z,8.80
2023-01-01T19:53:16.560Z,8.90
2023-01-01T19:58:25.187Z,8.90
2023-01-01T20:03:53.441Z,8.90
2023-01-01T20:08:41.815Z,9.00
2023-01-01T20:13:50.709Z,9.00
2023-01-01T20:18:59.152Z,9.10
2023-01-01T20:24:07.999Z,9.10
2023-01-01T20:29:16.303Z,9.00
2023-01-01T20:34:25.204Z,8.90
2023-01-01T20:39:33.658Z,8.80
2023-01-01T20:44:42.235Z,8.70
2023-01-01T20:49:50.878Z,8.60
2023-01-01T20:54:59.846Z,8.50
2023-01-01T21:00:07.892Z,8.50
2023-01-01T21:05:16.400Z,8.50
2023-01-01T21:10:25.046Z,8.60
2023-01-01T21:15:33.701Z,8.80
2023-01-01T21:20:42.018Z,8.70
2023-01-01T21:25:52.099Z,8.60
2023-01-01T21:30:58.736Z,8.50
2023-01-01T21:36:10.700Z,8.60
2023-01-01T21:41:08.926Z,8.70
2023-01-01T21:46:17.607Z,8.70
2023-01-01T21:51:25.995Z,8.70
2023-01-01T21:56:34.438Z,8.60
2023-01-01T22:01:42.812Z,8.60
2023-01-01T22:06:51.276Z,8.70
2023-01-01T22:11:59.650Z,8.70
2023-01-01T22:17:09.012Z,8.70
2023-01-01T22:22:17.314Z,8.70
2023-01-01T22:27:25.977Z,8.70
2023-01-01T22:32:34.213Z,8.70
2023-01-01T22:37:42.990Z,8.60
2023-01-01T22:42:54.200Z,8.60
2023-01-01T22:47:53.150Z,8.50
2023-01-01T22:53:02.223Z,8.50
2023-01-01T22:58:10.923Z,8.60
2023-01-01T23:03:19.392Z,8.80
2023-01-01T23:08:28.027Z,8.80
2023-01-01T23:13:36.415Z,8.70
2023-01-01T23:18:45.068Z,8.60
2023-01-01T23:23:53.732Z,8.60
2023-01-01T23:29:02.502Z,8.50
2023-01-01T23:34:11.082Z,8.50
2023-01-01T23:39:19.604Z,8.50
2023-01-01T23:44:27.979Z,8.50
2023-01-01T23:49:36.831Z,8.50
2023-01-01T23:54:45.417Z,8.50
2023-01-01T23:59:54.260Z,8.50
